Česky Dansk Deutsch English Español Suomi Français Magyar Italiano Nederlands norsk Polski Português svenska Türkçe

 

Het Weer

Vitoria (Spanje)

01:30, 16 augustus 2016 (GMT)

NWNNE
WE
SWSSE
Home            
Vitoria Bilbao / Sondica Logrono / Agoncillo Pamplona / Noain San Sebastian / Fuenterrabia Burgos / Villafria Santander / Parayas Biarritz Dax Zaragoza United States Air Force Operated Base In Foreign Country Zaragoza / Aeropuerto Pau Biscarosse Mont-De-Marsan Valladolid / Villanubla Cazaux Leon / Virgen Del Camino Calamocha Madri-Colmenar Bordeaux / Merignac Madrid / Torrejon Asturias / Aviles Madrid / Barajas

Om een weerknop op uw website of weblog te plaatsen, copieer onderstaande code en plak die in uw pagina. In het eerste vakje staat HTML-code, in het tweede vakje UBB-code.


Add to Google

Details

Visibility:Greater than 10000 m, 10 km, 32800 ft, 6.2 miles
Clouds:Ein wenig bewölkt at 4000 ft, 1219 m
Temperature:15°C, 59°F
Dew-point:14°C, 57°F
Atmospheric pressure:1017 hPa, 762.8 mmHg, 30.03 inHg, 1.004 atm
Relative humidity:93.7 %
METAR:LEVT 160130Z 00000KT 9999 FEW040 15/14 Q1017

Snelkoppelingen

Actuele weersinformatie van de hele wereld. Voeg locaties toe met het plus (+) symbool. Deze snelkoppelingen kunnen worden toegevoegd aan Google.

Lid van de Technetium groep

website free tracking
StatCounter NetStat W3C Validator

07-12-2022 08:33:01
astro.technetium.be money.technetium.be phote.technetium.be tafeltennistafel.technetium.be www.ligfiets.net